createdAt,value
2018-02-10T00:00:01.018Z,33.70
2018-02-10T00:02:28.521Z,38.08
2018-02-10T00:04:57.019Z,34.17
2018-02-10T00:07:24.538Z,34.60
2018-02-10T00:09:52.026Z,34.72
2018-02-10T00:12:20.399Z,36.42
2018-02-10T00:14:47.906Z,35.15
2018-02-10T00:17:15.499Z,36.33
2018-02-10T00:19:43.053Z,35.30
2018-02-10T00:22:10.619Z,34.75
2018-02-10T00:24:38.245Z,33.78
2018-02-10T00:27:05.823Z,35.17
2018-02-10T00:29:33.314Z,32.78
2018-02-10T00:32:01.557Z,34.83
2018-02-10T00:34:29.083Z,33.25
2018-02-10T00:36:56.632Z,31.62
2018-02-10T00:39:24.175Z,35.33
2018-02-10T00:41:51.837Z,35.38
2018-02-10T00:44:20.105Z,31.73
2018-02-10T00:46:48.373Z,33.78
2018-02-10T00:49:15.857Z,33.53
2018-02-10T00:51:43.379Z,36.17
2018-02-10T00:54:10.962Z,30.88
2018-02-10T00:56:39.229Z,32.35
2018-02-10T00:59:06.714Z,30.80
2018-02-10T01:01:34.197Z,34.00
2018-02-10T01:04:01.677Z,33.30
2018-02-10T01:06:29.190Z,31.35
2018-02-10T01:08:56.760Z,33.95
2018-02-10T01:11:24.249Z,33.60
2018-02-10T01:13:51.797Z,33.60
2018-02-10T01:16:19.302Z,30.42
2018-02-10T01:18:47.798Z,30.48
2018-02-10T01:21:16.252Z,30.12
2018-02-10T01:23:43.757Z,31.65
2018-02-10T01:26:11.243Z,29.65
2018-02-10T01:28:38.843Z,26.02
2018-02-10T01:31:07.129Z,25.30
2018-02-10T01:33:34.866Z,19.45
2018-02-10T01:36:02.357Z,26.30
2018-02-10T01:38:29.846Z,26.27
2018-02-10T01:40:57.323Z,24.90
2018-02-10T01:43:25.270Z,25.52
2018-02-10T01:45:52.767Z,25.60
2018-02-10T01:48:20.260Z,25.15
2018-02-10T01:50:48.529Z,25.50
2018-02-10T01:53:16.093Z,26.55
2018-02-10T01:55:44.345Z,23.40
2018-02-10T01:58:12.070Z,24.30
2018-02-10T02:00:39.878Z,23.15
2018-02-10T02:03:07.382Z,24.67
2018-02-10T02:05:34.857Z,20.98
2018-02-10T02:08:02.348Z,21.85
2018-02-10T02:10:29.842Z,21.55
2018-02-10T02:12:57.322Z,19.55
2018-02-10T02:15:25.653Z,19.40
2018-02-10T02:17:53.151Z,19.12
2018-02-10T02:20:20.625Z,17.83
2018-02-10T02:22:48.113Z,15.75
2018-02-10T02:25:15.609Z,15.88
2018-02-10T02:27:43.099Z,16.10
2018-02-10T02:30:11.628Z,16.10
2018-02-10T02:32:39.125Z,15.82
2018-02-10T02:35:06.642Z,13.77
2018-02-10T02:37:34.345Z,14.50
2018-02-10T02:40:01.907Z,13.62
2018-02-10T02:42:29.420Z,13.93
2018-02-10T02:44:56.902Z,15.88
2018-02-10T02:47:25.535Z,14.75
2018-02-10T02:49:53.034Z,15.18
2018-02-10T02:52:21.289Z,14.75
2018-02-10T02:54:48.789Z,14.00
2018-02-10T02:57:16.273Z,14.95
2018-02-10T02:59:43.745Z,13.30
2018-02-10T03:02:11.254Z,13.02
2018-02-10T03:04:39.490Z,14.30
2018-02-10T03:07:07.093Z,14.07
2018-02-10T03:09:34.593Z,14.75
2018-02-10T03:12:02.080Z,14.75
2018-02-10T03:14:29.576Z,18.02
2018-02-10T03:16:57.062Z,16.40
2018-02-10T03:19:24.595Z,15.70
2018-02-10T03:21:52.112Z,16.92
2018-02-10T03:24:19.598Z,15.05
2018-02-10T03:26:47.851Z,16.37
2018-02-10T03:29:15.681Z,18.25
2018-02-10T03:31:43.205Z,16.73
2018-02-10T03:34:11.492Z,16.20
2018-02-10T03:36:39.896Z,14.80
2018-02-10T03:39:07.449Z,17.37
2018-02-10T03:41:34.947Z,16.35
2018-02-10T03:44:02.425Z,17.15
2018-02-10T03:46:30.746Z,19.12
2018-02-10T03:48:58.235Z,17.17
2018-02-10T03:51:25.725Z,14.77
2018-02-10T03:53:54.028Z,15.48
2018-02-10T03:56:21.505Z,15.13
2018-02-10T03:58:49.157Z,14.63
2018-02-10T04:01:16.713Z,15.00
2018-02-10T04:03:44.201Z,14.82
2018-02-10T04:06:11.685Z,14.18
2018-02-10T04:08:39.188Z,15.80
2018-02-10T04:11:06.669Z,13.57
2018-02-10T04:13:34.165Z,13.85
2018-02-10T04:16:02.574Z,14.45
2018-02-10T04:18:30.327Z,13.48
2018-02-10T04:20:57.869Z,12.43
2018-02-10T04:23:26.233Z,13.70
2018-02-10T04:25:53.716Z,12.63
2018-02-10T04:28:21.995Z,11.80
2018-02-10T04:30:50.239Z,12.10
2018-02-10T04:33:17.739Z,10.20
2018-02-10T04:35:45.493Z,10.35
2018-02-10T04:38:13.737Z,11.38
2018-02-10T04:40:41.209Z,11.32
2018-02-10T04:43:09.511Z,10.50
2018-02-10T04:45:36.989Z,10.60
2018-02-10T04:48:04.472Z,11.77
2018-02-10T04:50:31.981Z,11.77
2018-02-10T04:53:00.238Z,10.18
2018-02-10T04:55:27.714Z,10.10
2018-02-10T04:57:56.022Z,9.93
2018-02-10T05:00:23.505Z,10.38
2018-02-10T05:02:50.985Z,10.57
2018-02-10T05:05:18.487Z,10.35
2018-02-10T05:07:45.982Z,10.57
2018-02-10T05:10:13.458Z,9.85
2018-02-10T05:12:41.255Z,12.15
2018-02-10T05:15:09.546Z,11.05
2018-02-10T05:17:37.033Z,11.82
2018-02-10T05:20:04.672Z,11.12
2018-02-10T05:22:32.174Z,11.43
2018-02-10T05:24:59.649Z,10.65
2018-02-10T05:27:27.945Z,10.63
2018-02-10T05:29:55.644Z,10.40
2018-02-10T05:32:23.141Z,11.70
2018-02-10T05:34:50.950Z,11.20
2018-02-10T05:37:18.482Z,11.93
2018-02-10T05:39:45.951Z,11.98
2018-02-10T05:42:13.481Z,10.88
2018-02-10T05:44:41.156Z,11.90
2018-02-10T05:47:08.819Z,12.55
2018-02-10T05:49:36.637Z,12.32
2018-02-10T05:52:04.251Z,13.27
2018-02-10T05:54:31.758Z,12.90
2018-02-10T05:56:59.340Z,12.80
2018-02-10T05:59:26.829Z,12.32
2018-02-10T06:01:54.465Z,13.13
2018-02-10T06:04:22.026Z,13.18
2018-02-10T06:06:49.509Z,12.10
2018-02-10T06:09:17.758Z,10.35
2018-02-10T06:11:45.253Z,12.13
2018-02-10T06:14:12.766Z,10.48
2018-02-10T06:16:40.262Z,11.85
2018-02-10T06:19:07.822Z,10.75
2018-02-10T06:21:35.270Z,10.40
2018-02-10T06:24:03.516Z,12.63
2018-02-10T06:26:31.218Z,10.80
2018-02-10T06:28:58.932Z,11.85
2018-02-10T06:31:27.232Z,12.73
2018-02-10T06:33:54.925Z,12.70
2018-02-10T06:36:23.171Z,11.95
2018-02-10T06:38:50.879Z,12.65
2018-02-10T06:41:18.422Z,12.32
2018-02-10T06:43:45.978Z,11.73
2018-02-10T06:46:14.567Z,11.75
2018-02-10T06:48:42.096Z,10.02
2018-02-10T06:51:09.739Z,9.93
2018-02-10T06:53:37.225Z,11.48
2018-02-10T06:58:38.578Z,9.35
2018-02-10T07:01:06.278Z,9.60
2018-02-10T07:03:33.761Z,8.55
2018-02-10T07:06:02.193Z,7.15
2018-02-10T07:08:30.867Z,9.82
2018-02-10T07:10:58.406Z,8.95
2018-02-10T07:13:25.886Z,8.95
2018-02-10T07:15:53.368Z,8.25
2018-02-10T07:18:21.644Z,7.80
2018-02-10T07:20:49.966Z,9.07
2018-02-10T07:23:17.441Z,7.75
2018-02-10T07:25:45.106Z,8.50
2018-02-10T07:28:12.610Z,7.37
2018-02-10T07:30:40.854Z,8.40
2018-02-10T07:33:08.347Z,7.25
2018-02-10T07:35:35.829Z,8.25
2018-02-10T07:38:03.301Z,6.60
2018-02-10T07:40:30.797Z,7.65
2018-02-10T07:42:58.366Z,6.93
2018-02-10T07:45:26.623Z,5.87
2018-02-10T07:47:54.118Z,6.60
2018-02-10T07:50:21.594Z,7.25
2018-02-10T07:52:49.837Z,6.78
2018-02-10T07:55:18.101Z,7.50
2018-02-10T07:57:46.342Z,7.60
2018-02-10T08:00:13.825Z,7.45
2018-02-10T08:02:41.321Z,7.68
2018-02-10T08:05:09.682Z,7.93
2018-02-10T08:07:37.177Z,7.18
2018-02-10T08:10:04.698Z,6.93
2018-02-10T08:12:32.221Z,7.15
2018-02-10T08:14:59.701Z,7.80
2018-02-10T08:17:27.201Z,6.57
2018-02-10T08:19:54.681Z,6.40
2018-02-10T08:22:22.161Z,5.72
2018-02-10T08:24:49.675Z,5.72
2018-02-10T08:27:17.161Z,6.20
2018-02-10T08:29:44.648Z,6.22
2018-02-10T08:32:12.290Z,6.28
2018-02-10T08:34:39.934Z,5.53
2018-02-10T08:37:07.412Z,6.25
2018-02-10T08:39:34.945Z,6.70
2018-02-10T08:42:02.421Z,5.82
2018-02-10T08:44:29.893Z,5.37
2018-02-10T08:46:57.398Z,6.22
2018-02-10T08:49:24.877Z,6.40
2018-02-10T08:51:52.349Z,5.93
2018-02-10T08:54:20.003Z,5.45
2018-02-10T08:56:47.509Z,6.95
2018-02-10T08:59:15.758Z,5.43
2018-02-10T09:01:43.251Z,6.05
2018-02-10T09:04:11.508Z,6.70
2018-02-10T09:06:39.124Z,5.53
2018-02-10T09:09:06.645Z,5.60
2018-02-10T09:11:34.882Z,6.50
2018-02-10T09:14:02.365Z,5.82
2018-02-10T09:16:30.026Z,6.10
2018-02-10T09:18:57.722Z,5.18
2018-02-10T09:21:25.222Z,5.28
2018-02-10T09:23:52.715Z,4.97
2018-02-10T09:26:20.990Z,5.68
2018-02-10T09:28:48.470Z,6.62
2018-02-10T09:31:16.763Z,4.97
2018-02-10T09:33:44.346Z,5.28
2018-02-10T09:36:11.825Z,5.45
2018-02-10T09:38:39.340Z,5.25
2018-02-10T09:41:07.596Z,6.03
2018-02-10T09:43:36.117Z,5.82
2018-02-10T09:46:03.754Z,5.47
2018-02-10T09:48:31.236Z,5.97
2018-02-10T09:50:58.706Z,4.55
2018-02-10T09:53:46.234Z,4.20
2018-02-10T09:56:13.820Z,5.18
2018-02-10T09:58:41.557Z,4.03
2018-02-10T10:01:09.066Z,6.50
2018-02-10T10:03:37.345Z,4.18
2018-02-10T10:06:05.663Z,5.62
2018-02-10T10:08:33.117Z,4.62
2018-02-10T10:11:00.598Z,5.15
2018-02-10T10:13:28.301Z,5.07
2018-02-10T10:15:56.549Z,5.20
2018-02-10T10:18:24.037Z,4.82
2018-02-10T10:20:51.601Z,5.87
2018-02-10T10:23:19.085Z,5.12
2018-02-10T10:25:46.585Z,6.65
2018-02-10T10:28:14.069Z,6.30
2018-02-10T10:30:42.317Z,4.85
2018-02-10T10:33:22.021Z,5.37
2018-02-10T10:35:57.026Z,4.18
2018-02-10T10:38:25.513Z,5.20
2018-02-10T10:40:53.256Z,4.40
2018-02-10T10:43:21.533Z,5.20
2018-02-10T10:45:49.821Z,4.62
2018-02-10T10:48:25.678Z,4.80
2018-02-10T10:50:54.361Z,5.20
2018-02-10T10:53:22.723Z,5.15
2018-02-10T10:55:51.177Z,4.90
2018-02-10T10:58:18.724Z,5.70
2018-02-10T11:00:46.942Z,6.15
2018-02-10T11:03:20.726Z,5.30
2018-02-10T11:05:48.869Z,4.93
2018-02-10T11:08:18.197Z,5.18
2018-02-10T11:13:34.496Z,5.12
2018-02-10T11:16:08.778Z,4.82
2018-02-10T11:18:37.209Z,4.40
2018-02-10T11:21:30.033Z,5.93
2018-02-10T11:23:58.636Z,4.63
2018-02-10T11:26:27.785Z,5.10
2018-02-10T11:28:57.177Z,5.13
2018-02-10T11:31:27.286Z,5.47
2018-02-10T11:33:55.105Z,4.53
2018-02-10T11:36:22.842Z,5.13
2018-02-10T11:38:51.655Z,5.27
2018-02-10T11:41:20.260Z,5.13
2018-02-10T11:43:48.418Z,4.63
2018-02-10T11:46:17.065Z,5.37
2018-02-10T11:48:45.457Z,5.17
2018-02-10T11:51:14.118Z,5.10
2018-02-10T11:53:50.464Z,5.12
2018-02-10T11:56:19.579Z,5.22
2018-02-10T11:58:47.624Z,5.75
2018-02-10T12:01:15.913Z,6.53
2018-02-10T12:03:44.683Z,7.15
2018-02-10T12:06:12.778Z,6.57
2018-02-10T12:08:40.265Z,7.12
2018-02-10T12:11:08.874Z,6.85
2018-02-10T12:13:37.207Z,8.45
2018-02-10T12:16:04.693Z,6.85
2018-02-10T12:18:32.220Z,5.55
2018-02-10T12:20:59.704Z,6.37
2018-02-10T12:23:27.949Z,6.65
2018-02-10T12:25:55.457Z,6.33
2018-02-10T12:28:23.062Z,5.57
2018-02-10T12:30:50.577Z,6.57
2018-02-10T12:33:18.987Z,6.45
2018-02-10T12:35:47.440Z,6.00
2018-02-10T12:38:14.998Z,7.87
2018-02-10T12:40:42.731Z,6.30
2018-02-10T12:43:11.001Z,5.72
2018-02-10T12:45:38.529Z,5.82
2018-02-10T12:48:12.266Z,5.75
2018-02-10T12:50:39.797Z,5.75
2018-02-10T12:53:07.459Z,4.57
2018-02-10T12:55:35.114Z,5.10
2018-02-10T12:58:02.718Z,4.45
2018-02-10T13:00:30.436Z,4.20
2018-02-10T13:02:58.107Z,4.18
2018-02-10T13:05:25.862Z,4.60
2018-02-10T13:07:53.369Z,3.80
2018-02-10T13:10:21.670Z,4.23
2018-02-10T13:12:49.205Z,4.27
2018-02-10T13:15:16.920Z,4.00
2018-02-10T13:17:45.225Z,4.13
2018-02-10T13:20:12.729Z,3.93
2018-02-10T13:22:40.351Z,3.63
2018-02-10T13:25:08.621Z,4.13
2018-02-10T13:27:36.200Z,3.80
2018-02-10T13:30:03.759Z,3.17
2018-02-10T13:32:32.005Z,3.03
2018-02-10T13:34:59.519Z,3.73
2018-02-10T13:37:27.077Z,3.07
2018-02-10T13:39:54.656Z,2.83
2018-02-10T13:42:22.296Z,4.70
2018-02-10T13:44:49.806Z,3.72
2018-02-10T13:47:17.295Z,3.00
2018-02-10T13:49:45.546Z,3.33
2018-02-10T13:52:13.042Z,3.43
2018-02-10T13:54:40.720Z,2.97
2018-02-10T13:57:08.310Z,2.50
2018-02-10T13:59:35.915Z,2.50
2018-02-10T14:02:03.586Z,2.70
2018-02-10T14:04:31.109Z,2.90
2018-02-10T14:06:58.632Z,2.80
2018-02-10T14:09:26.157Z,2.80
2018-02-10T14:11:53.742Z,2.43
2018-02-10T14:14:21.503Z,3.00
2018-02-10T14:16:49.217Z,2.63
2018-02-10T14:19:16.829Z,2.57
2018-02-10T14:21:44.331Z,2.83
2018-02-10T14:24:11.995Z,2.77
2018-02-10T14:26:39.844Z,2.70
2018-02-10T14:29:07.565Z,2.80
2018-02-10T14:31:35.066Z,3.37
2018-02-10T14:34:03.026Z,3.30
2018-02-10T14:36:30.648Z,2.70
2018-02-10T14:38:59.166Z,2.93
2018-02-10T14:41:28.433Z,3.37
2018-02-10T14:43:55.959Z,3.37
2018-02-10T14:46:23.678Z,3.70
2018-02-10T14:48:51.233Z,3.60
2018-02-10T14:51:19.584Z,3.43
2018-02-10T14:53:47.165Z,3.87
2018-02-10T14:56:14.644Z,3.10
2018-02-10T14:58:42.352Z,3.53
2018-02-10T15:01:10.839Z,2.90
2018-02-10T15:03:38.419Z,3.70
2018-02-10T15:06:06.669Z,3.40
2018-02-10T15:08:34.193Z,3.97
2018-02-10T15:11:01.805Z,3.65
2018-02-10T15:13:29.481Z,3.03
2018-02-10T15:15:57.112Z,2.55
2018-02-10T15:18:25.401Z,2.78
2018-02-10T15:20:52.878Z,2.90
2018-02-10T15:23:21.194Z,3.40
2018-02-10T15:25:48.687Z,3.78
2018-02-10T15:28:16.175Z,3.40
2018-02-10T15:30:56.425Z,3.25
2018-02-10T15:33:36.417Z,3.70
2018-02-10T15:36:03.980Z,3.67
2018-02-10T15:38:31.466Z,3.80
2018-02-10T15:40:58.959Z,3.30
2018-02-10T15:43:27.202Z,4.07
2018-02-10T15:45:54.816Z,3.87
2018-02-10T15:48:22.548Z,3.70
2018-02-10T15:50:50.322Z,4.05
2018-02-10T15:53:18.796Z,3.42
2018-02-10T15:55:46.442Z,3.90
2018-02-10T15:58:14.030Z,3.60
2018-02-10T16:00:41.526Z,3.45
2018-02-10T16:05:43.117Z,4.37
2018-02-10T16:08:10.722Z,3.35
2018-02-10T16:10:40.935Z,3.08
2018-02-10T16:13:09.485Z,4.12
2018-02-10T16:15:36.964Z,3.75
2018-02-10T16:18:04.579Z,3.80
2018-02-10T16:20:32.094Z,3.70
2018-02-10T16:22:59.677Z,4.05
2018-02-10T16:25:27.313Z,4.50
2018-02-10T16:27:55.785Z,3.87
2018-02-10T16:30:23.387Z,3.50
2018-02-10T16:32:50.874Z,3.75
2018-02-10T16:35:18.384Z,4.60
2018-02-10T16:37:47.365Z,4.00
2018-02-10T16:40:14.842Z,3.95
2018-02-10T16:42:43.117Z,3.55
2018-02-10T16:45:11.362Z,4.00
2018-02-10T16:47:38.837Z,3.40
2018-02-10T16:50:07.849Z,4.45
2018-02-10T16:52:36.593Z,4.25
2018-02-10T16:55:04.087Z,5.28
2018-02-10T16:57:32.375Z,4.15
2018-02-10T17:00:00.640Z,4.07
2018-02-10T17:02:28.920Z,4.35
2018-02-10T17:04:56.593Z,5.20
2018-02-10T17:07:24.869Z,3.95
2018-02-10T17:09:52.478Z,4.50
2018-02-10T17:12:20.018Z,5.45
2018-02-10T17:14:47.574Z,5.50
2018-02-10T17:17:16.034Z,6.00
2018-02-10T17:19:43.553Z,5.12
2018-02-10T17:22:11.083Z,5.00
2018-02-10T17:24:38.702Z,5.57
2018-02-10T17:27:07.123Z,5.20
2018-02-10T17:29:34.624Z,5.15
2018-02-10T17:32:03.709Z,4.65
2018-02-10T17:34:31.214Z,4.47
2018-02-10T17:36:58.802Z,7.32
2018-02-10T17:39:26.345Z,4.05
2018-02-10T17:41:53.909Z,5.65
2018-02-10T17:44:21.486Z,5.18
2018-02-10T17:46:49.128Z,5.75
2018-02-10T17:49:17.543Z,4.45
2018-02-10T17:51:45.022Z,5.50
2018-02-10T17:54:12.541Z,5.70
2018-02-10T17:56:40.028Z,4.85
2018-02-10T17:59:08.242Z,4.87
2018-02-10T18:01:36.429Z,4.37
2018-02-10T18:04:06.290Z,5.47
2018-02-10T18:06:33.823Z,5.20
2018-02-10T18:09:01.322Z,5.78
2018-02-10T18:11:28.805Z,5.68
2018-02-10T18:13:57.002Z,5.93
2018-02-10T18:16:24.661Z,5.30
2018-02-10T18:18:52.137Z,4.87
2018-02-10T18:21:19.785Z,5.65
2018-02-10T18:23:48.335Z,5.82
2018-02-10T18:26:15.850Z,5.25
2018-02-10T18:28:44.085Z,4.60
2018-02-10T18:31:11.681Z,4.65
2018-02-10T18:33:39.164Z,4.45
2018-02-10T18:36:06.638Z,5.45
2018-02-10T18:38:35.782Z,5.10
2018-02-10T18:41:03.274Z,4.68
2018-02-10T18:43:31.588Z,4.10
2018-02-10T18:45:59.844Z,5.47
2018-02-10T18:48:27.342Z,5.07
2018-02-10T18:50:57.778Z,4.62
2018-02-10T18:53:28.320Z,4.97
2018-02-10T18:55:56.195Z,4.53
2018-02-10T18:58:23.719Z,5.30
2018-02-10T19:00:51.210Z,4.70
2018-02-10T19:03:18.719Z,4.03
2018-02-10T19:05:46.996Z,4.53
2018-02-10T19:08:15.970Z,5.45
2018-02-10T19:10:43.446Z,5.22
2018-02-10T19:13:11.689Z,4.68
2018-02-10T19:15:39.182Z,5.40
2018-02-10T19:18:07.450Z,5.60
2018-02-10T19:20:35.700Z,5.35
2018-02-10T19:23:03.985Z,6.15
2018-02-10T19:25:31.481Z,6.18
2018-02-10T19:27:59.102Z,5.90
2018-02-10T19:30:27.286Z,5.07
2018-02-10T19:32:55.265Z,6.70
2018-02-10T19:35:23.533Z,5.45
2018-02-10T19:37:53.697Z,5.68
2018-02-10T19:40:21.298Z,6.57
2018-02-10T19:42:48.897Z,6.72
2018-02-10T19:45:17.953Z,6.55
2018-02-10T19:47:45.922Z,6.25
2018-02-10T19:50:13.406Z,6.05
2018-02-10T19:52:42.336Z,6.57
2018-02-10T19:55:09.814Z,5.93
2018-02-10T19:57:37.294Z,5.15
2018-02-10T20:00:04.826Z,6.30
2018-02-10T20:02:33.042Z,6.60
2018-02-10T20:05:00.542Z,5.72
2018-02-10T20:07:28.801Z,5.78
2018-02-10T20:09:57.745Z,6.07
2018-02-10T20:12:25.246Z,7.40
2018-02-10T20:14:54.221Z,5.65
2018-02-10T20:17:21.709Z,5.95
2018-02-10T20:19:49.189Z,5.05
2018-02-10T20:22:17.251Z,5.22
2018-02-10T20:24:44.750Z,4.72
2018-02-10T20:27:12.230Z,4.72
2018-02-10T20:29:40.562Z,5.75
2018-02-10T20:32:08.924Z,6.00
2018-02-10T20:34:36.703Z,4.70
2018-02-10T20:37:04.973Z,4.50
2018-02-10T20:39:32.462Z,5.10
2018-02-10T20:41:59.941Z,4.90
2018-02-10T20:44:28.193Z,4.12
2018-02-10T20:46:55.684Z,5.32
2018-02-10T20:49:23.929Z,4.10
2018-02-10T20:51:51.532Z,6.45
2018-02-10T20:54:19.030Z,5.22
2018-02-10T20:56:46.514Z,5.35
2018-02-10T20:59:13.987Z,5.32
2018-02-10T21:01:41.509Z,5.07
2018-02-10T21:04:09.641Z,4.85
2018-02-10T21:06:37.887Z,4.35
2018-02-10T21:09:05.382Z,4.95
2018-02-10T21:11:32.871Z,4.12
2018-02-10T21:14:00.333Z,4.20
2018-02-10T21:16:27.970Z,5.32
2018-02-10T21:19:00.379Z,4.05
2018-02-10T21:21:30.586Z,4.00
2018-02-10T21:24:03.435Z,4.68
2018-02-10T21:26:35.852Z,5.43
2018-02-10T21:29:08.446Z,5.18
2018-02-10T21:31:39.387Z,5.22
2018-02-10T21:34:07.511Z,4.50
2018-02-10T21:36:34.989Z,5.53
2018-02-10T21:39:02.494Z,4.93
2018-02-10T21:41:30.765Z,4.68
2018-02-10T21:43:58.233Z,5.70
2018-02-10T21:46:26.513Z,4.90
2018-02-10T21:48:54.484Z,5.00
2018-02-10T21:51:22.730Z,4.95
2018-02-10T21:53:50.392Z,4.65
2018-02-10T21:56:18.013Z,5.07
2018-02-10T21:58:45.560Z,4.82
2018-02-10T22:01:13.113Z,4.25
2018-02-10T22:03:40.590Z,4.55
2018-02-10T22:06:08.208Z,5.40
2018-02-10T22:08:35.684Z,5.07
2018-02-10T22:11:03.931Z,6.43
2018-02-10T22:13:31.418Z,5.40
2018-02-10T22:15:59.664Z,5.20
2018-02-10T22:18:27.143Z,5.90
2018-02-10T22:20:56.027Z,5.32
2018-02-10T22:23:23.520Z,4.80
2018-02-10T22:25:50.994Z,6.43
2018-02-10T22:28:18.511Z,5.53
2018-02-10T22:30:47.727Z,5.45
2018-02-10T22:33:15.217Z,6.30
2018-02-10T22:35:42.812Z,4.28
2018-02-10T22:38:10.279Z,5.25
2018-02-10T22:40:37.750Z,5.50
2018-02-10T22:43:06.016Z,4.50
2018-02-10T22:45:33.997Z,5.97
2018-02-10T22:48:02.386Z,4.60
2018-02-10T22:50:29.869Z,4.90
2018-02-10T22:52:57.874Z,4.75
2018-02-10T22:55:25.709Z,5.35
2018-02-10T22:57:53.214Z,4.57
2018-02-10T23:00:20.702Z,4.80
2018-02-10T23:02:48.186Z,5.47
2018-02-10T23:05:15.685Z,4.55
2018-02-10T23:07:43.157Z,4.15
2018-02-10T23:10:11.399Z,3.53
2018-02-10T23:12:38.911Z,3.97
2018-02-10T23:15:06.386Z,4.12
2018-02-10T23:17:33.861Z,4.72
2018-02-10T23:20:01.349Z,3.80
2018-02-10T23:22:28.818Z,2.50
2018-02-10T23:24:57.057Z,4.30
2018-02-10T23:27:24.875Z,3.22
2018-02-10T23:29:53.122Z,3.50
2018-02-10T23:32:20.593Z,3.47
2018-02-10T23:34:48.861Z,3.35
2018-02-10T23:37:17.117Z,2.12
2018-02-10T23:39:44.598Z,3.20
2018-02-10T23:42:12.088Z,3.15
2018-02-10T23:44:39.561Z,3.30
2018-02-10T23:47:07.060Z,2.90
2018-02-10T23:49:35.349Z,2.58
2018-02-10T23:52:02.849Z,3.00
2018-02-10T23:54:30.325Z,2.58
2018-02-10T23:56:57.821Z,2.78
2018-02-10T23:59:25.293Z,2.15
